KDRI/DRI METAR and TAF weather

Enter ICAO airport designator
Station Type Date Time Source
KDRI METAR 2022/06/28 16:15 UTC NOAA

KDRI 281615Z AUTO 36006KT 10SM SCT070 31/20 A3013 RMK AO2 T03120195


Station Type Date Time Source
KDRI Decoded METAR 2022/06/28 16:15 UTC NOAA

De Ridder, Beauregard Parish Airport, LA, United States (KDRI) 30-49-54N 093-20-23W
Jun 28, 2022 - 12:15 PM EDT / 2022.06.28 1615 UTC
Wind: from the N (360 degrees) at 7 MPH (6 KT):0
Visibility: 10 mile(s):0
Sky conditions: partly cloudy
Temperature: 88.2 F (31.2 C)
Dew Point: 67.1 F (19.5 C)
Relative Humidity: 49%
Pressure (altimeter): 30.13 in. Hg (1020 hPa)
ob: KDRI 281615Z AUTO 36006KT 10SM SCT070 31/20 A3013 RMK AO2 T03120195
cycle: 16

Station Type Date Time Source
KDRI TAF UTC NOAA

Error!

Example: see airport list